Time;durP1;ratioP1;P1;durP2;ratioP2;P2;SDS_P1;SDS_P2;PMS_P1;PMS_P2;Temp;Humidity;BMP_temperature;BMP_pressure;BME280_temperature;BME280_humidity;BME280_pressure;Samples;Min_cycle;Max_cycle;Signal;HPM_P1;HPM_P2
2021/12/19 00:02:07;;;;;;;45.53;27.35;;;3.60;99.90;;;;;;5059605;28;20220;-83
2021/12/19 00:04:44;;;;;;;39.80;24.70;;;3.70;99.90;;;;;;5061492;28;20231;-82
2021/12/19 00:09:56;;;;;;;38.30;22.73;;;3.70;99.90;;;;;;5067549;28;20261;-84
2021/12/19 00:12:23;;;;;;;38.90;23.80;;;3.60;99.90;;;;;;5054024;28;20208;-82
2021/12/19 00:14:49;;;;;;;44.90;24.45;;;3.60;99.90;;;;;;5052611;28;20215;-83
2021/12/19 00:17:16;;;;;;;43.97;25.25;;;3.60;99.90;;;;;;5066175;28;20224;-83
2021/12/19 00:19:45;;;;;;;40.20;25.45;;;3.60;99.90;;;;;;5061288;28;20221;-83
2021/12/19 00:22:13;;;;;;;45.50;25.80;;;3.60;99.90;;;;;;5050311;28;20676;-83
2021/12/19 00:24:40;;;;;;;38.38;22.55;;;3.60;99.90;;;;;;5051521;28;20194;-83
2021/12/19 00:27:06;;;;;;;39.50;23.27;;;3.60;99.90;;;;;;5073310;28;20203;-83
2021/12/19 00:29:33;;;;;;;36.25;22.40;;;3.60;99.90;;;;;;5045370;28;20328;-83
2021/12/19 00:32:00;;;;;;;48.63;24.60;;;3.70;99.90;;;;;;5058494;28;20291;-83
2021/12/19 00:34:27;;;;;;;47.60;24.83;;;3.70;99.90;;;;;;5073440;28;20205;-83
2021/12/19 00:36:55;;;;;;;44.78;24.17;;;3.80;99.90;;;;;;5055244;28;20696;-82
2021/12/19 00:39:23;;;;;;;39.25;22.80;;;3.80;99.90;;;;;;5068515;28;20254;-83
2021/12/19 00:41:52;;;;;;;38.67;22.73;;;3.80;99.90;;;;;;5053173;28;20285;-83
2021/12/19 00:44:23;;;;;;;42.58;24.60;;;3.80;99.90;;;;;;5050695;28;20724;-83
2021/12/19 00:46:53;;;;;;;46.13;23.85;;;3.80;99.90;;;;;;5055646;28;20232;-83
2021/12/19 00:49:22;;;;;;;40.85;23.75;;;3.80;99.90;;;;;;5067464;28;20193;-82
2021/12/19 00:51:50;;;;;;;40.13;23.58;;;3.90;99.90;;;;;;5045774;28;20243;-83
2021/12/19 00:54:18;;;;;;;36.15;20.13;;;3.90;99.90;;;;;;5059442;28;20287;-83
2021/12/19 00:56:48;;;;;;;36.58;19.63;;;3.90;99.90;;;;;;5056639;28;20239;-83
2021/12/19 00:59:16;;;;;;;31.88;20.17;;;3.90;99.90;;;;;;5061071;28;20196;-82
2021/12/19 01:01:46;;;;;;;36.97;19.58;;;3.90;99.90;;;;;;5051513;28;20224;-83
2021/12/19 01:04:16;;;;;;;34.70;20.83;;;3.90;99.90;;;;;;5059252;28;20200;-82
2021/12/19 01:06:46;;;;;;;37.55;21.23;;;3.80;99.90;;;;;;5052613;28;20292;-82
2021/12/19 01:09:13;;;;;;;35.63;20.95;;;3.80;99.90;;;;;;5060124;28;20243;-83
2021/12/19 01:11:41;;;;;;;44.85;23.10;;;3.80;99.90;;;;;;5065244;28;20667;-83
2021/12/19 01:14:09;;;;;;;37.22;22.42;;;3.80;99.90;;;;;;5052500;28;20193;-82
2021/12/19 01:16:36;;;;;;;42.28;23.63;;;3.80;99.90;;;;;;5052381;28;20332;-83
2021/12/19 01:19:04;;;;;;;41.58;21.65;;;3.70;99.90;;;;;;5060245;28;20303;-83
2021/12/19 01:21:31;;;;;;;48.83;23.33;;;3.70;99.90;;;;;;5057277;28;20200;-82
2021/12/19 01:23:58;;;;;;;51.50;25.25;;;3.60;99.90;;;;;;5052048;28;20577;-82
2021/12/19 01:26:25;;;;;;;39.47;22.17;;;3.50;99.90;;;;;;5054365;28;20192;-83
2021/12/19 01:28:53;;;;;;;44.53;23.60;;;3.40;99.90;;;;;;5071733;28;20219;-83
2021/12/19 01:31:20;;;;;;;54.33;26.42;;;3.40;99.90;;;;;;5068977;28;20195;-83
2021/12/19 01:33:47;;;;;;;44.67;24.25;;;3.30;99.90;;;;;;5057453;28;20211;-83
2021/12/19 01:36:14;;;;;;;43.85;23.27;;;3.30;99.90;;;;;;5056080;28;20225;-82
2021/12/19 01:38:41;;;;;;;48.22;24.27;;;3.30;99.90;;;;;;5056554;28;20212;-83
2021/12/19 01:41:08;;;;;;;43.22;22.08;;;3.30;99.90;;;;;;5051145;28;20550;-82
2021/12/19 01:43:35;;;;;;;37.65;21.02;;;3.30;99.90;;;;;;5051717;28;20220;-83
2021/12/19 01:46:04;;;;;;;39.85;22.77;;;3.40;99.90;;;;;;5062851;28;20215;-83
2021/12/19 01:48:32;;;;;;;37.05;20.88;;;3.40;99.90;;;;;;5071070;28;20215;-83
2021/12/19 01:50:59;;;;;;;36.85;19.23;;;3.40;99.90;;;;;;5054594;28;20620;-83
2021/12/19 01:53:28;;;;;;;38.63;20.52;;;3.40;99.90;;;;;;5056091;28;20292;-83
2021/12/19 01:55:56;;;;;;;37.90;20.08;;;3.40;99.90;;;;;;5050666;28;20213;-83
2021/12/19 01:58:25;;;;;;;37.55;19.92;;;3.30;99.90;;;;;;5055801;28;20223;-83
2021/12/19 02:00:54;;;;;;;37.70;19.92;;;3.30;99.90;;;;;;5057578;28;20193;-83
2021/12/19 02:03:24;;;;;;;35.17;18.90;;;3.20;99.90;;;;;;5051865;28;20206;-83
2021/12/19 02:05:51;;;;;;;34.55;18.88;;;3.20;99.90;;;;;;5050227;28;20247;-83
2021/12/19 02:08:19;;;;;;;35.33;20.77;;;3.30;99.90;;;;;;5055760;28;20299;-83
2021/12/19 02:10:47;;;;;;;34.88;19.95;;;3.40;99.90;;;;;;5054408;28;20208;-83
2021/12/19 02:13:16;;;;;;;35.45;21.40;;;3.50;99.90;;;;;;5062009;28;20257;-83
2021/12/19 02:15:45;;;;;;;31.23;18.50;;;3.60;99.90;;;;;;5057652;28;20237;-84
2021/12/19 02:18:15;;;;;;;30.23;17.60;;;3.60;99.90;;;;;;5069902;28;20268;-82
2021/12/19 02:20:50;;;;;;;29.65;17.85;;;3.70;99.90;;;;;;5050648;28;20193;-82
2021/12/19 02:23:18;;;;;;;30.63;18.00;;;3.70;99.90;;;;;;5047930;28;20656;-83
2021/12/19 02:25:46;;;;;;;29.45;17.50;;;3.60;99.90;;;;;;5051180;28;20670;-83
2021/12/19 02:28:13;;;;;;;31.58;16.27;;;3.60;99.90;;;;;;5054791;28;20227;-82
2021/12/19 02:30:40;;;;;;;30.42;18.05;;;3.50;99.90;;;;;;5051404;28;20280;-82
2021/12/19 02:33:11;;;;;;;31.42;17.25;;;3.40;99.90;;;;;;5042734;28;20298;-83
2021/12/19 02:35:39;;;;;;;31.13;17.00;;;3.40;99.90;;;;;;5044417;28;20284;-83
2021/12/19 02:49:25;;;;;;;30.77;17.13;;;3.50;99.90;;;;;;5075249;28;20207;-82
2021/12/19 02:51:54;;;;;;;30.02;17.05;;;3.40;99.90;;;;;;5053763;28;20193;-84
2021/12/19 02:54:23;;;;;;;29.80;16.20;;;3.40;99.90;;;;;;5074726;28;20286;-83
2021/12/19 02:56:51;;;;;;;31.38;16.85;;;3.30;99.90;;;;;;5052723;28;20631;-83
2021/12/19 02:59:19;;;;;;;26.23;14.73;;;3.40;99.90;;;;;;5056440;28;20198;-82
2021/12/19 03:01:46;;;;;;;25.27;15.55;;;3.40;99.90;;;;;;5067853;28;20196;-83
2021/12/19 03:04:15;;;;;;;29.55;16.10;;;3.40;99.90;;;;;;5059197;28;20193;-83
2021/12/19 03:06:47;;;;;;;30.10;15.32;;;3.40;99.90;;;;;;5065992;28;20193;-84
2021/12/19 03:09:22;;;;;;;28.73;15.43;;;3.30;99.90;;;;;;5071996;28;20189;-83
2021/12/19 03:12:07;;;;;;;27.27;15.45;;;3.30;99.90;;;;;;5054086;28;20576;-83
2021/12/19 03:20:04;;;;;;;33.10;17.17;;;3.20;99.90;;;;;;5054825;28;20203;-82
2021/12/19 03:22:31;;;;;;;33.92;17.35;;;3.10;99.90;;;;;;5050952;28;20198;-83
2021/12/19 03:24:58;;;;;;;29.65;16.10;;;3.10;99.90;;;;;;5068482;28;20196;-82
2021/12/19 03:27:27;;;;;;;37.13;17.23;;;3.00;99.90;;;;;;5061106;28;20221;-82
2021/12/19 03:29:54;;;;;;;35.13;16.85;;;2.90;99.90;;;;;;5052409;28;20193;-83
2021/12/19 03:32:23;;;;;;;44.28;18.63;;;2.80;99.90;;;;;;5043015;28;20201;-84
2021/12/19 03:34:50;;;;;;;34.67;17.70;;;2.80;99.90;;;;;;5046005;28;20309;-83
2021/12/19 03:37:17;;;;;;;36.08;16.63;;;2.80;99.90;;;;;;5047909;28;20252;-83
2021/12/19 03:39:56;;;;;;;37.22;19.30;;;2.70;99.90;;;;;;5048161;28;20314;-81
2021/12/19 03:42:26;;;;;;;35.50;16.70;;;2.70;99.90;;;;;;5060864;28;20192;-81
2021/12/19 03:44:54;;;;;;;33.63;16.88;;;2.70;99.90;;;;;;5056172;28;20284;-81
2021/12/19 03:47:21;;;;;;;30.95;15.27;;;2.70;99.90;;;;;;5051561;28;20716;-81
2021/12/19 03:49:48;;;;;;;41.25;18.63;;;2.80;99.90;;;;;;5058442;28;20190;-81
2021/12/19 03:52:16;;;;;;;32.80;15.45;;;2.90;99.90;;;;;;5045481;28;20211;-83
2021/12/19 03:54:42;;;;;;;33.38;16.30;;;2.90;99.90;;;;;;5035766;28;20776;-83
2021/12/19 03:57:10;;;;;;;39.38;18.52;;;2.80;99.90;;;;;;5047074;28;20222;-82
2021/12/19 03:59:40;;;;;;;34.10;16.15;;;2.80;99.90;;;;;;5033460;28;20281;-82
2021/12/19 04:02:07;;;;;;;30.65;15.50;;;2.70;99.90;;;;;;5032910;28;20202;-82
2021/12/19 04:04:38;;;;;;;29.83;15.18;;;2.70;99.90;;;;;;5047881;28;20193;-83
2021/12/19 04:07:05;;;;;;;34.85;18.88;;;2.70;99.90;;;;;;5041084;28;20780;-82
2021/12/19 04:09:32;;;;;;;31.35;16.40;;;2.60;99.90;;;;;;5035688;28;20197;-82
2021/12/19 04:11:59;;;;;;;32.85;16.02;;;2.60;99.90;;;;;;5042034;28;20198;-82
2021/12/19 04:14:26;;;;;;;30.40;17.23;;;2.60;99.90;;;;;;5041832;28;20198;-82
2021/12/19 04:16:54;;;;;;;47.70;17.60;;;2.60;99.90;;;;;;5051654;28;20688;-82
2021/12/19 04:19:21;;;;;;;42.42;18.70;;;2.60;99.90;;;;;;5051248;28;20201;-82
2021/12/19 04:21:48;;;;;;;37.47;17.98;;;2.50;99.90;;;;;;5032736;28;20197;-82
2021/12/19 04:24:15;;;;;;;40.42;18.48;;;2.50;99.90;;;;;;5043862;28;20220;-82
2021/12/19 04:26:42;;;;;;;34.63;17.15;;;2.40;99.90;;;;;;5038960;28;20579;-82
2021/12/19 04:29:10;;;;;;;43.78;18.27;;;2.50;99.90;;;;;;5045366;28;20193;-81
2021/12/19 04:31:37;;;;;;;44.00;17.13;;;2.50;99.90;;;;;;5045274;28;20198;-82
2021/12/19 04:34:05;;;;;;;45.47;17.63;;;2.40;99.90;;;;;;5044866;28;20844;-82
2021/12/19 04:36:37;;;;;;;39.70;16.95;;;2.30;99.90;;;;;;5038270;28;20224;-82
2021/12/19 04:42:37;;;;;;;40.95;15.95;;;2.40;99.90;;;;;;5041600;28;20197;-82
2021/12/19 04:56:16;;;;;;;38.58;17.35;;;2.40;99.90;;;;;;5038678;28;20732;-82
2021/12/19 04:59:10;;;;;;;32.35;14.13;;;2.30;99.90;;;;;;5041038;28;20976;-81
2021/12/19 05:04:42;;;;;;;29.60;15.27;;;2.40;99.90;;;;;;5046673;28;20197;-81
2021/12/19 05:15:27;;;;;;;30.20;14.23;;;2.60;99.90;;;;;;5043701;28;20288;-81
2021/12/19 05:17:56;;;;;;;32.03;15.30;;;2.60;99.90;;;;;;5050943;28;20221;-81
2021/12/19 05:20:27;;;;;;;37.80;14.77;;;2.70;99.90;;;;;;5056672;28;20205;-81
2021/12/19 05:23:01;;;;;;;32.05;16.00;;;2.60;99.90;;;;;;5051973;28;20231;-81
2021/12/19 05:25:29;;;;;;;27.42;13.20;;;2.50;99.90;;;;;;5050278;28;20196;-81
2021/12/19 05:27:57;;;;;;;27.40;12.23;;;2.50;99.90;;;;;;5047071;28;20879;-81
2021/12/19 05:30:25;;;;;;;25.00;11.82;;;2.40;99.90;;;;;;5052988;28;20212;-82
2021/12/19 05:32:53;;;;;;;31.98;14.27;;;2.40;99.90;;;;;;5049250;28;20197;-81
2021/12/19 05:35:30;;;;;;;29.40;14.15;;;2.40;99.90;;;;;;5045795;28;20277;-82
2021/12/19 05:46:11;;;;;;;24.17;10.68;;;2.30;99.90;;;;;;5047354;28;20668;-81
2021/12/19 05:48:39;;;;;;;18.33;10.50;;;2.30;99.90;;;;;;5051091;28;20289;-82
2021/12/19 05:51:06;;;;;;;17.48;10.30;;;2.30;99.90;;;;;;5053753;28;20279;-82
2021/12/19 05:53:34;;;;;;;20.95;10.07;;;2.40;99.90;;;;;;5049399;28;20198;-81
2021/12/19 05:56:01;;;;;;;19.27;9.90;;;2.40;99.90;;;;;;5047261;28;20198;-82
2021/12/19 05:58:28;;;;;;;23.63;11.85;;;2.40;99.90;;;;;;5049683;28;20224;-82
2021/12/19 06:00:55;;;;;;;19.00;10.27;;;2.40;99.90;;;;;;5047957;28;20201;-81
2021/12/19 06:03:22;;;;;;;18.92;10.35;;;2.40;99.90;;;;;;5050322;28;20203;-81
2021/12/19 06:05:49;;;;;;;21.88;10.95;;;2.50;99.90;;;;;;5038026;28;20224;-81
2021/12/19 06:08:16;;;;;;;19.10;9.75;;;2.40;99.90;;;;;;5049165;28;20557;-81
2021/12/19 06:10:44;;;;;;;19.85;11.50;;;2.40;99.90;;;;;;5048148;28;20463;-82
2021/12/19 06:13:11;;;;;;;23.08;12.63;;;2.30;99.90;;;;;;5056376;28;20196;-81
2021/12/19 06:15:39;;;;;;;24.88;13.85;;;2.30;99.90;;;;;;5039814;28;20202;-81
2021/12/19 06:18:06;;;;;;;27.55;12.60;;;2.40;99.90;;;;;;5046955;28;20294;-81
2021/12/19 06:20:33;;;;;;;24.30;11.73;;;2.30;99.90;;;;;;5042730;28;20284;-80
2021/12/19 06:23:01;;;;;;;18.90;11.18;;;2.40;99.90;;;;;;5049019;28;20201;-82
2021/12/19 06:25:28;;;;;;;24.77;11.90;;;2.40;99.90;;;;;;5047653;28;20199;-81
2021/12/19 06:27:56;;;;;;;20.02;11.15;;;2.30;99.90;;;;;;5046049;28;20599;-81
2021/12/19 06:30:23;;;;;;;21.83;10.93;;;2.20;99.90;;;;;;5061067;28;20737;-81
2021/12/19 06:32:50;;;;;;;30.63;13.00;;;2.30;99.90;;;;;;5042837;28;20251;-81
2021/12/19 06:35:19;;;;;;;27.00;13.25;;;2.20;99.90;;;;;;5044950;28;20264;-81
2021/12/19 06:37:48;;;;;;;31.63;14.63;;;2.20;99.90;;;;;;5049087;28;20237;-82
2021/12/19 06:40:17;;;;;;;25.95;12.88;;;2.10;99.90;;;;;;5046945;28;20224;-81
2021/12/19 06:42:44;;;;;;;29.30;12.25;;;2.10;99.90;;;;;;5045449;28;20296;-83
2021/12/19 06:45:12;;;;;;;24.20;12.95;;;2.10;99.90;;;;;;5045083;28;20333;-82
2021/12/19 06:47:40;;;;;;;25.63;12.18;;;2.10;99.90;;;;;;5032680;28;20228;-83
2021/12/19 06:50:09;;;;;;;20.95;11.82;;;2.20;99.90;;;;;;5042232;28;20288;-83
2021/12/19 06:52:37;;;;;;;23.90;12.63;;;2.20;99.90;;;;;;5043659;28;20197;-82
2021/12/19 06:55:05;;;;;;;21.40;12.25;;;2.40;99.90;;;;;;5042364;28;20219;-82
2021/12/19 06:57:32;;;;;;;24.92;13.73;;;2.40;99.90;;;;;;5043591;28;20362;-84
2021/12/19 07:00:02;;;;;;;23.85;12.90;;;2.50;99.90;;;;;;5050984;28;20215;-83
2021/12/19 07:02:30;;;;;;;22.25;12.60;;;2.50;99.90;;;;;;5041968;28;20228;-83
2021/12/19 07:04:57;;;;;;;25.88;12.20;;;2.50;99.90;;;;;;5044778;28;20331;-83
2021/12/19 07:07:24;;;;;;;30.67;14.15;;;2.50;99.90;;;;;;5042860;28;20224;-82
2021/12/19 07:09:51;;;;;;;22.48;12.13;;;2.50;99.90;;;;;;5039251;28;20288;-82
2021/12/19 07:12:19;;;;;;;25.27;11.80;;;2.40;99.90;;;;;;5050512;28;20204;-82
2021/12/19 07:14:46;;;;;;;26.73;12.48;;;2.30;99.90;;;;;;5047620;28;20201;-82
2021/12/19 07:17:13;;;;;;;26.75;14.15;;;2.30;99.90;;;;;;5043482;28;20248;-82
2021/12/19 07:19:41;;;;;;;23.20;12.48;;;2.30;99.90;;;;;;5051374;28;20232;-83
2021/12/19 07:22:08;;;;;;;23.27;12.38;;;2.30;99.90;;;;;;5046032;28;20201;-82
2021/12/19 07:24:35;;;;;;;27.48;14.23;;;2.30;99.90;;;;;;5044993;28;20281;-83
2021/12/19 07:27:02;;;;;;;20.63;12.23;;;2.40;99.90;;;;;;5043359;28;20320;-83
2021/12/19 07:29:30;;;;;;;26.00;13.25;;;2.40;99.90;;;;;;5047948;28;20202;-85
2021/12/19 07:31:58;;;;;;;23.48;11.40;;;2.50;99.90;;;;;;5050673;28;20285;-81
2021/12/19 07:34:31;;;;;;;21.52;11.07;;;2.40;99.90;;;;;;5049738;28;20198;-81
2021/12/19 07:37:00;;;;;;;23.15;12.55;;;2.50;99.90;;;;;;5045494;28;20276;-82
2021/12/19 07:39:39;;;;;;;20.38;12.10;;;2.60;99.90;;;;;;5051945;28;20205;-81
2021/12/19 07:42:09;;;;;;;26.30;13.05;;;2.50;99.90;;;;;;5046968;28;20671;-79
2021/12/19 07:44:37;;;;;;;20.17;11.95;;;2.60;99.90;;;;;;5035680;28;20194;-79
2021/12/19 07:47:06;;;;;;;17.77;9.55;;;2.80;99.90;;;;;;5040030;28;20244;-84
2021/12/19 07:49:33;;;;;;;18.90;10.85;;;2.70;99.90;;;;;;5045853;28;20201;-82
2021/12/19 07:52:01;;;;;;;17.48;10.85;;;2.60;99.90;;;;;;5037834;28;20276;-83
2021/12/19 07:54:28;;;;;;;18.40;10.40;;;2.70;99.90;;;;;;5042337;28;20208;-82
2021/12/19 07:56:55;;;;;;;18.15;9.45;;;2.70;99.90;;;;;;5040237;28;20218;-83
2021/12/19 07:59:22;;;;;;;17.00;10.57;;;2.60;99.90;;;;;;5044032;28;20296;-83
2021/12/19 08:01:49;;;;;;;19.95;10.70;;;2.60;99.90;;;;;;5041974;28;20389;-82
2021/12/19 08:04:16;;;;;;;20.92;10.55;;;2.50;99.90;;;;;;5033726;28;20213;-86
2021/12/19 08:06:44;;;;;;;17.63;10.02;;;2.50;99.90;;;;;;5041290;28;20213;-82
2021/12/19 08:09:22;;;;;;;18.33;10.60;;;2.50;99.90;;;;;;5038549;28;20201;-83
2021/12/19 08:11:48;;;;;;;16.88;10.00;;;2.60;99.90;;;;;;5044485;28;20197;-82
2021/12/19 08:14:16;;;;;;;16.63;9.43;;;2.50;99.90;;;;;;5044856;28;20209;-83
2021/12/19 08:16:45;;;;;;;14.73;7.93;;;2.40;99.90;;;;;;5039838;28;20269;-84
2021/12/19 08:19:13;;;;;;;18.35;9.38;;;2.30;99.90;;;;;;5040456;28;20321;-82
2021/12/19 08:21:40;;;;;;;17.05;10.70;;;2.20;99.90;;;;;;5042331;28;20198;-84
2021/12/19 08:24:11;;;;;;;17.75;10.05;;;2.30;99.90;;;;;;5037989;28;20198;-83
2021/12/19 08:26:41;;;;;;;13.82;8.02;;;2.30;99.90;;;;;;5040946;28;20221;-83
2021/12/19 08:29:08;;;;;;;17.00;9.07;;;2.40;99.90;;;;;;5048249;28;20224;-86
2021/12/19 08:31:35;;;;;;;15.13;9.38;;;2.50;99.90;;;;;;5042788;28;20210;-83
2021/12/19 08:34:03;;;;;;;13.90;8.73;;;2.60;99.90;;;;;;5040724;28;20286;-83
2021/12/19 08:36:31;;;;;;;15.27;8.48;;;2.60;99.90;;;;;;5046871;28;20217;-83
2021/12/19 08:38:59;;;;;;;14.70;9.55;;;2.50;99.90;;;;;;5031823;28;20222;-83
2021/12/19 08:41:28;;;;;;;17.08;9.23;;;2.40;99.90;;;;;;5039574;28;20286;-83
2021/12/19 08:43:57;;;;;;;16.50;9.57;;;2.40;99.90;;;;;;5046545;28;20680;-83
2021/12/19 08:46:25;;;;;;;15.10;9.38;;;2.40;99.90;;;;;;5041211;28;20221;-83
2021/12/19 08:48:53;;;;;;;14.55;8.55;;;2.50;99.90;;;;;;5037930;28;20209;-83
2021/12/19 08:51:20;;;;;;;14.48;8.13;;;2.50;99.90;;;;;;5042130;28;20281;-80
2021/12/19 08:53:47;;;;;;;11.30;8.27;;;2.60;99.90;;;;;;5046704;28;20225;-85
2021/12/19 08:56:14;;;;;;;14.48;7.72;;;2.70;99.90;;;;;;5049166;28;20731;-83
2021/12/19 08:58:41;;;;;;;12.63;7.70;;;2.70;99.90;;;;;;5048215;28;20233;-82
2021/12/19 09:01:09;;;;;;;12.35;8.55;;;2.80;99.90;;;;;;5050992;28;20189;-81
2021/12/19 09:03:36;;;;;;;13.00;7.32;;;2.70;99.90;;;;;;5051605;28;20197;-81
2021/12/19 09:06:03;;;;;;;11.00;7.22;;;2.70;99.90;;;;;;5052340;28;20214;-82
2021/12/19 09:08:31;;;;;;;10.77;6.85;;;2.70;99.90;;;;;;5053971;28;20227;-81
2021/12/19 09:10:58;;;;;;;11.10;6.95;;;2.70;99.90;;;;;;5052377;28;20193;-81
2021/12/19 09:13:26;;;;;;;11.95;7.55;;;2.70;99.90;;;;;;5052234;28;20205;-81
2021/12/19 09:15:53;;;;;;;11.85;6.85;;;2.80;99.90;;;;;;5053619;28;20189;-82
2021/12/19 09:18:22;;;;;;;10.15;7.22;;;2.90;99.90;;;;;;5059410;28;20710;-81
2021/12/19 09:20:49;;;;;;;11.05;7.07;;;3.00;99.90;;;;;;5052229;28;20194;-81
2021/12/19 09:23:17;;;;;;;8.32;6.45;;;3.00;99.90;;;;;;5052201;28;20552;-81
2021/12/19 09:25:44;;;;;;;8.00;5.95;;;3.00;99.90;;;;;;5051891;28;20272;-81
2021/12/19 09:28:12;;;;;;;9.95;6.38;;;3.00;99.90;;;;;;5056791;28;20197;-81
2021/12/19 09:30:39;;;;;;;9.07;6.18;;;3.00;99.90;;;;;;5052089;28;20204;-82
2021/12/19 09:33:06;;;;;;;8.30;6.85;;;3.00;99.90;;;;;;5053938;28;20292;-81
2021/12/19 09:35:35;;;;;;;7.13;5.45;;;3.00;99.90;;;;;;5053655;28;20197;-81
2021/12/19 09:38:02;;;;;;;9.00;7.18;;;3.10;99.90;;;;;;5053031;28;20291;-82
2021/12/19 09:40:34;;;;;;;7.85;5.75;;;3.10;99.90;;;;;;5051488;28;20763;-82
2021/12/19 09:43:04;;;;;;;9.52;6.45;;;3.20;99.90;;;;;;5051297;28;20291;-81
2021/12/19 09:45:33;;;;;;;8.32;6.03;;;3.30;99.90;;;;;;5051492;28;20205;-81
2021/12/19 09:48:00;;;;;;;7.57;5.28;;;3.30;99.90;;;;;;5056247;28;20225;-81
2021/12/19 09:50:28;;;;;;;8.65;5.95;;;3.30;99.90;;;;;;5050812;28;20197;-82
2021/12/19 09:52:57;;;;;;;6.15;5.55;;;3.30;99.90;;;;;;5051443;28;20194;-82
2021/12/19 09:55:24;;;;;;;6.10;5.03;;;3.30;99.90;;;;;;5051637;28;20292;-82
2021/12/19 09:57:53;;;;;;;5.55;4.38;;;3.30;99.90;;;;;;5054775;28;20220;-82
2021/12/19 10:00:22;;;;;;;7.07;4.45;;;3.30;99.90;;;;;;5046248;28;20201;-80
2021/12/19 10:02:49;;;;;;;5.53;4.45;;;3.30;99.90;;;;;;5052346;28;20194;-81
2021/12/19 10:05:19;;;;;;;5.03;4.20;;;3.40;99.90;;;;;;5051750;28;20193;-80
2021/12/19 10:07:49;;;;;;;6.43;4.82;;;3.40;99.90;;;;;;5054323;28;20308;-81
2021/12/19 10:10:26;;;;;;;7.25;5.47;;;3.30;99.90;;;;;;5050097;28;20693;-81
2021/12/19 10:12:57;;;;;;;9.77;5.93;;;3.40;99.90;;;;;;5056301;28;20320;-81
2021/12/19 10:15:30;;;;;;;6.85;4.93;;;3.40;99.90;;;;;;5055473;28;20192;-81
2021/12/19 10:18:03;;;;;;;5.60;4.50;;;3.40;99.90;;;;;;5051684;28;20303;-81
2021/12/19 10:20:41;;;;;;;6.28;4.88;;;3.20;99.90;;;;;;5051137;28;20202;-81
2021/12/19 10:23:13;;;;;;;6.35;5.13;;;3.20;99.90;;;;;;5047900;28;20204;-81
2021/12/19 10:25:41;;;;;;;5.80;4.53;;;3.20;99.90;;;;;;5050591;28;20240;-81
2021/12/19 10:28:10;;;;;;;7.85;5.28;;;3.20;99.90;;;;;;5055526;28;20220;-81
2021/12/19 10:30:40;;;;;;;4.78;4.28;;;3.20;99.90;;;;;;5053970;28;20203;-81
2021/12/19 10:33:09;;;;;;;6.80;5.00;;;3.20;99.90;;;;;;5055125;28;20239;-81
2021/12/19 10:35:39;;;;;;;6.78;4.93;;;3.40;99.90;;;;;;5050914;28;20272;-81
2021/12/19 10:38:12;;;;;;;5.60;4.75;;;3.40;99.90;;;;;;5060543;28;20213;-81
2021/12/19 10:40:45;;;;;;;5.85;5.22;;;3.30;99.90;;;;;;5051131;28;20193;-81
2021/12/19 10:43:16;;;;;;;5.72;5.00;;;3.30;99.90;;;;;;5047936;28;20200;-81
2021/12/19 10:45:46;;;;;;;6.15;5.38;;;3.30;99.90;;;;;;5055350;28;20240;-81
2021/12/19 10:48:20;;;;;;;5.78;5.20;;;3.30;99.90;;;;;;5052124;28;20207;-81
2021/12/19 10:50:50;;;;;;;5.75;5.13;;;3.40;99.90;;;;;;5050792;28;20207;-81
2021/12/19 10:53:17;;;;;;;5.90;5.10;;;3.30;99.90;;;;;;5055316;28;20638;-81
2021/12/19 10:55:49;;;;;;;6.32;5.53;;;3.20;99.90;;;;;;5045450;28;20225;-81
2021/12/19 10:58:22;;;;;;;5.60;5.10;;;3.20;99.90;;;;;;5043976;28;20217;-81
2021/12/19 11:01:07;;;;;;;5.25;4.75;;;3.30;99.90;;;;;;5050718;28;20671;-81
2021/12/19 11:03:48;;;;;;;4.80;4.40;;;3.40;99.90;;;;;;5053769;28;20580;-82
2021/12/19 11:06:29;;;;;;;5.00;4.60;;;3.50;99.90;;;;;;5054477;28;20295;-81
2021/12/19 11:08:58;;;;;;;4.10;3.70;;;3.60;99.90;;;;;;5062037;28;20196;-82
2021/12/19 11:11:49;;;;;;;4.35;3.95;;;3.60;99.90;;;;;;5048050;28;20217;-81
2021/12/19 11:14:19;;;;;;;4.00;3.70;;;3.60;99.90;;;;;;5059404;28;20793;-81
2021/12/19 11:16:47;;;;;;;4.28;3.88;;;3.70;99.90;;;;;;5054816;28;20770;-81
2021/12/19 11:19:15;;;;;;;4.65;4.22;;;3.70;99.90;;;;;;5059845;28;20842;-81
2021/12/19 11:21:43;;;;;;;4.40;4.05;;;3.80;99.90;;;;;;5054467;28;20196;-81
2021/12/19 11:24:12;;;;;;;4.15;3.85;;;3.80;99.90;;;;;;5058462;28;20193;-81
2021/12/19 11:26:42;;;;;;;4.40;4.00;;;3.80;99.90;;;;;;5054444;28;20255;-81
2021/12/19 11:29:10;;;;;;;4.40;4.00;;;4.00;99.90;;;;;;5055321;28;20848;-81
2021/12/19 11:31:39;;;;;;;3.88;3.55;;;4.10;99.90;;;;;;5057350;28;20213;-81
2021/12/19 11:34:31;;;;;;;4.47;4.07;;;4.10;99.90;;;;;;5057446;28;20195;-81
2021/12/19 11:37:02;;;;;;;4.93;4.53;;;4.10;99.90;;;;;;5053227;28;20221;-81
2021/12/19 11:39:33;;;;;;;4.85;4.45;;;4.00;99.90;;;;;;5050270;28;20220;-81
2021/12/19 11:42:11;;;;;;;5.53;5.03;;;4.00;99.90;;;;;;5054317;28;20221;-81
2021/12/19 11:44:48;;;;;;;5.15;4.70;;;4.00;99.90;;;;;;5058771;28;20220;-82
2021/12/19 11:47:43;;;;;;;5.43;4.93;;;4.00;99.90;;;;;;5053888;28;20255;-81
2021/12/19 11:50:14;;;;;;;5.55;5.05;;;3.80;99.90;;;;;;5055647;28;20189;-81
2021/12/19 11:52:41;;;;;;;6.25;5.65;;;3.60;99.90;;;;;;5052642;28;20222;-81
2021/12/19 11:55:20;;;;;;;5.88;5.13;;;3.60;99.90;;;;;;5050811;28;20738;-81
2021/12/19 11:58:17;;;;;;;6.32;5.75;;;3.70;99.90;;;;;;5054717;28;20635;-83
2021/12/19 12:00:50;;;;;;;7.07;6.47;;;3.70;99.90;;;;;;5047411;28;20192;-82
2021/12/19 12:03:32;;;;;;;7.32;6.63;;;3.70;99.90;;;;;;5054521;28;20201;-81
2021/12/19 12:06:28;;;;;;;6.15;5.65;;;3.80;99.90;;;;;;5051114;28;20214;-81
2021/12/19 12:09:25;;;;;;;7.97;7.10;;;3.70;99.90;;;;;;5041195;28;20197;-82
2021/12/19 12:12:21;;;;;;;7.35;6.65;;;3.70;99.90;;;;;;5058169;28;20196;-81
2021/12/19 12:15:04;;;;;;;7.05;6.45;;;3.80;99.90;;;;;;5061028;28;20236;-82
2021/12/19 12:17:36;;;;;;;7.78;6.97;;;3.70;99.90;;;;;;5053248;28;20263;-82
2021/12/19 12:20:30;;;;;;;7.75;6.97;;;3.60;99.90;;;;;;5053377;28;20240;-81
2021/12/19 12:23:08;;;;;;;9.27;8.38;;;3.40;99.90;;;;;;5052238;28;20200;-83
2021/12/19 12:25:40;;;;;;;8.25;7.45;;;3.40;99.90;;;;;;5055758;28;20189;-82
2021/12/19 12:28:10;;;;;;;8.48;7.68;;;3.40;99.90;;;;;;5053095;28;20196;-81
2021/12/19 12:30:42;;;;;;;8.98;8.18;;;3.30;99.90;;;;;;5053411;28;20251;-81
2021/12/19 12:33:14;;;;;;;9.02;8.23;;;3.30;99.90;;;;;;5056466;28;20193;-81
2021/12/19 12:35:42;;;;;;;9.27;8.45;;;3.30;99.90;;;;;;5045145;28;20208;-82
2021/12/19 12:38:11;;;;;;;9.60;8.77;;;3.40;99.90;;;;;;5052184;28;20236;-82
2021/12/19 12:40:50;;;;;;;9.85;8.95;;;3.50;99.90;;;;;;5051696;28;20225;-81
2021/12/19 12:43:20;;;;;;;11.02;9.93;;;3.50;99.90;;;;;;5057669;28;20279;-81
2021/12/19 12:46:00;;;;;;;11.35;10.23;;;3.60;99.90;;;;;;5053042;28;20209;-82
2021/12/19 12:48:37;;;;;;;11.00;9.90;;;3.70;99.90;;;;;;5053322;28;20233;-82
2021/12/19 12:51:07;;;;;;;10.82;9.82;;;3.70;99.90;;;;;;5047245;28;20246;-81
2021/12/19 12:53:36;;;;;;;11.90;10.75;;;3.70;99.90;;;;;;5054645;28;20213;-81
2021/12/19 12:56:11;;;;;;;12.77;11.57;;;3.60;99.90;;;;;;5060276;28;20219;-82
2021/12/19 12:58:42;;;;;;;10.57;9.57;;;3.70;99.90;;;;;;5046553;28;20666;-82
2021/12/19 13:01:20;;;;;;;10.88;9.95;;;3.70;99.90;;;;;;5052494;28;20270;-81
2021/12/19 13:04:04;;;;;;;12.18;11.00;;;3.70;99.90;;;;;;5026501;22;20227;-82
2021/12/19 13:06:50;;;;;;;11.90;10.30;;;3.50;99.90;;;;;;4995207;28;20219;-82
2021/12/19 13:09:20;;;;;;;11.38;10.27;;;3.50;99.90;;;;;;4992296;28;20201;-82
2021/12/19 13:11:49;;;;;;;11.48;10.27;;;3.50;99.90;;;;;;4992165;28;20559;-82
2021/12/19 13:14:19;;;;;;;11.02;9.93;;;3.50;99.90;;;;;;4992108;28;20206;-82
2021/12/19 13:16:51;;;;;;;10.98;9.88;;;3.60;99.90;;;;;;4991448;28;20706;-82
2021/12/19 13:19:42;;;;;;;14.05;11.25;;;3.50;99.90;;;;;;4991990;28;20222;-82
2021/12/19 13:22:11;;;;;;;12.23;9.70;;;3.40;99.90;;;;;;4992817;28;20314;-82
2021/12/19 13:24:40;;;;;;;12.35;11.00;;;3.30;99.90;;;;;;4991702;28;20223;-82
2021/12/19 13:27:13;;;;;;;15.30;12.32;;;3.10;99.90;;;;;;4992107;28;20215;-82
2021/12/19 13:29:42;;;;;;;14.13;12.73;;;3.00;99.90;;;;;;4990560;28;20203;-83
2021/12/19 13:32:26;;;;;;;13.93;12.40;;;3.00;99.90;;;;;;4991587;28;20742;-82
2021/12/19 13:34:54;;;;;;;12.45;11.15;;;3.10;99.90;;;;;;4991256;28;20295;-82
2021/12/19 13:37:22;;;;;;;13.57;12.13;;;3.20;99.90;;;;;;4992242;28;20219;-82
2021/12/19 13:40:00;;;;;;;13.10;11.75;;;3.20;99.90;;;;;;4991577;28;20310;-82
2021/12/19 13:42:39;;;;;;;11.30;10.10;;;3.30;99.90;;;;;;4991714;28;20221;-83
2021/12/19 13:45:25;;;;;;;11.18;10.10;;;3.30;99.90;;;;;;4982299;28;20213;-82
2021/12/19 13:47:55;;;;;;;11.52;10.38;;;3.40;99.90;;;;;;4987283;28;20285;-82
2021/12/19 13:50:23;;;;;;;10.88;9.75;;;3.40;99.90;;;;;;4991208;28;20679;-82
2021/12/19 13:52:50;;;;;;;10.00;9.00;;;3.40;99.90;;;;;;4992175;28;20246;-82